createdAt,value
2023-05-25T00:00:57.546Z,17.31
2023-05-25T00:02:05.033Z,17.28
2023-05-25T00:03:12.761Z,17.25
2023-05-25T00:04:17.403Z,17.22
2023-05-25T00:05:21.068Z,17.25
2023-05-25T00:06:23.791Z,17.23
2023-05-25T00:07:27.131Z,17.22
2023-05-25T00:08:29.774Z,17.21
2023-05-25T00:09:33.181Z,17.25
2023-05-25T00:10:35.625Z,17.28
2023-05-25T00:11:40.341Z,17.29
2023-05-25T00:12:42.679Z,17.33
2023-05-25T00:13:46.047Z,17.32
2023-05-25T00:14:48.502Z,17.34
2023-05-25T00:15:52.070Z,17.36
2023-05-25T00:16:54.512Z,17.36
2023-05-25T00:17:58.088Z,17.39
2023-05-25T00:19:03.860Z,17.39
2023-05-25T00:20:08.990Z,17.38
2023-05-25T00:21:11.847Z,17.38
2023-05-25T00:23:17.887Z,17.38
2023-05-25T00:24:21.301Z,17.38
2023-05-25T00:25:23.727Z,17.39
2023-05-25T00:26:27.201Z,17.37
2023-05-25T00:27:31.799Z,17.37
2023-05-25T00:28:35.121Z,17.37
2023-05-25T00:29:37.501Z,17.34
2023-05-25T00:30:41.246Z,17.33
2023-05-25T00:31:43.551Z,17.30
2023-05-25T00:32:48.135Z,17.28
2023-05-25T00:33:50.944Z,17.29
2023-05-25T00:34:55.257Z,17.29
2023-05-25T00:36:00.218Z,17.29
2023-05-25T00:37:04.728Z,17.27
2023-05-25T00:38:07.079Z,17.26
2023-05-25T00:39:10.534Z,17.24
2023-05-25T00:40:16.499Z,17.21
2023-05-25T00:41:20.199Z,17.20
2023-05-25T00:42:23.857Z,17.16
2023-05-25T00:43:28.638Z,17.16
2023-05-25T00:44:32.569Z,17.13
2023-05-25T00:45:36.089Z,17.10
2023-05-25T00:46:38.964Z,17.06
2023-05-25T00:47:42.658Z,17.05
2023-05-25T00:48:45.095Z,17.05
2023-05-25T00:49:48.842Z,17.02
2023-05-25T00:50:54.899Z,17.00
2023-05-25T00:51:59.617Z,17.01
2023-05-25T00:53:02.001Z,17.00
2023-05-25T00:54:05.414Z,16.98
2023-05-25T00:55:12.222Z,16.98
2023-05-25T00:56:20.330Z,16.96
2023-05-25T00:57:25.594Z,16.93
2023-05-25T00:58:34.346Z,16.93
2023-05-25T00:59:41.510Z,16.89
2023-05-25T01:00:46.747Z,16.91
2023-05-25T01:01:53.949Z,16.89
2023-05-25T01:02:59.862Z,16.89
2023-05-25T01:04:07.513Z,16.89
2023-05-25T01:05:13.313Z,16.88
2023-05-25T01:06:17.083Z,16.87
2023-05-25T01:07:25.260Z,16.86
2023-05-25T01:08:28.734Z,16.86
2023-05-25T01:09:34.559Z,16.86
2023-05-25T01:10:39.496Z,16.87
2023-05-25T01:11:45.473Z,16.88
2023-05-25T01:12:51.774Z,16.87
2023-05-25T01:13:57.505Z,16.88
2023-05-25T01:15:04.349Z,16.88
2023-05-25T01:16:08.660Z,16.86
2023-05-25T01:17:11.948Z,16.89
2023-05-25T01:18:16.374Z,16.90
2023-05-25T01:19:18.903Z,16.91
2023-05-25T01:20:22.201Z,16.91
2023-05-25T01:21:38.161Z,16.92
2023-05-25T01:22:46.731Z,16.89
2023-05-25T01:23:56.648Z,16.89
2023-05-25T01:25:05.249Z,16.86
2023-05-25T01:26:13.315Z,16.85
2023-05-25T01:27:22.782Z,16.82
2023-05-25T01:28:30.507Z,16.81
2023-05-25T01:29:35.150Z,16.74
2023-05-25T01:30:41.123Z,16.73
2023-05-25T01:31:47.134Z,16.70
2023-05-25T01:32:49.973Z,16.67
2023-05-25T01:33:54.741Z,16.63
2023-05-25T01:34:59.329Z,16.60
2023-05-25T01:36:03.266Z,16.56
2023-05-25T01:37:07.413Z,16.54
2023-05-25T01:38:11.466Z,16.51
2023-05-25T01:39:13.865Z,16.48
2023-05-25T01:40:17.733Z,16.46
2023-05-25T01:41:20.499Z,16.45
2023-05-25T01:42:23.784Z,16.44
2023-05-25T01:43:26.298Z,16.43
2023-05-25T01:44:30.259Z,16.44
2023-05-25T01:45:33.051Z,16.45
2023-05-25T01:46:39.319Z,16.44
2023-05-25T01:47:53.786Z,16.42
2023-05-25T01:49:09.757Z,16.42
2023-05-25T01:50:19.966Z,16.38
2023-05-25T01:51:29.598Z,16.36
2023-05-25T01:52:39.260Z,16.36
2023-05-25T01:53:50.150Z,16.34
2023-05-25T01:54:57.643Z,16.33
2023-05-25T01:56:03.611Z,16.30
2023-05-25T01:57:10.915Z,16.31
2023-05-25T01:58:18.131Z,16.29
2023-05-25T01:59:22.239Z,16.27
2023-05-25T02:00:27.601Z,16.28
2023-05-25T02:01:33.944Z,16.27
2023-05-25T02:02:38.295Z,16.27
2023-05-25T02:03:42.095Z,16.28
2023-05-25T02:04:45.972Z,16.28
2023-05-25T02:05:48.624Z,16.29
2023-05-25T02:06:53.248Z,16.26
2023-05-25T02:07:57.018Z,16.27
2023-05-25T02:09:00.314Z,16.25
2023-05-25T02:10:02.822Z,16.25
2023-05-25T02:11:06.312Z,16.23
2023-05-25T02:12:09.316Z,16.21
2023-05-25T02:13:12.781Z,16.21
2023-05-25T02:14:16.101Z,16.19
2023-05-25T02:15:19.938Z,16.19
2023-05-25T02:16:22.382Z,16.20
2023-05-25T02:17:28.078Z,16.20
2023-05-25T02:18:30.530Z,16.19
2023-05-25T02:19:33.883Z,16.19
2023-05-25T02:20:37.453Z,16.19
2023-05-25T02:21:40.860Z,16.20
2023-05-25T02:22:43.635Z,16.19
2023-05-25T02:23:49.358Z,16.21
2023-05-25T02:24:51.826Z,16.18
2023-05-25T02:25:56.100Z,16.17
2023-05-25T02:26:58.561Z,16.18
2023-05-25T02:28:02.484Z,16.18
2023-05-25T02:29:06.039Z,16.20
2023-05-25T02:30:10.447Z,16.19
2023-05-25T02:31:12.933Z,16.19
2023-05-25T02:32:16.749Z,16.17
2023-05-25T02:33:27.581Z,16.17
2023-05-25T02:34:31.043Z,16.18
2023-05-25T02:35:33.360Z,16.19
2023-05-25T02:36:37.570Z,16.20
2023-05-25T02:37:40.130Z,16.17
2023-05-25T02:38:43.585Z,16.19
2023-05-25T02:39:47.322Z,16.22
2023-05-25T02:40:50.701Z,16.24
2023-05-25T02:41:53.061Z,16.24
2023-05-25T02:42:56.358Z,16.26
2023-05-25T02:43:59.850Z,16.28
2023-05-25T02:45:04.017Z,16.28
2023-05-25T02:46:06.377Z,16.31
2023-05-25T02:47:09.760Z,16.32
2023-05-25T02:48:12.469Z,16.34
2023-05-25T02:49:16.029Z,16.36
2023-05-25T02:50:18.554Z,16.36
2023-05-25T02:51:21.904Z,16.37
2023-05-25T02:52:25.749Z,16.38
2023-05-25T02:53:29.479Z,16.38
2023-05-25T02:54:31.899Z,16.39
2023-05-25T02:55:38.146Z,16.40
2023-05-25T02:56:42.502Z,16.39
2023-05-25T02:57:45.894Z,16.39
2023-05-25T02:58:48.434Z,16.38
2023-05-25T02:59:52.737Z,16.40
2023-05-25T03:01:02.771Z,16.41
2023-05-25T03:02:10.316Z,16.39
2023-05-25T03:03:17.158Z,16.36
2023-05-25T03:04:27.993Z,16.33
2023-05-25T03:05:37.214Z,16.31
2023-05-25T03:06:52.072Z,16.27
2023-05-25T03:07:55.870Z,16.23
2023-05-25T03:09:08.289Z,16.21
2023-05-25T03:10:15.485Z,16.19
2023-05-25T03:11:29.372Z,16.17
2023-05-25T03:12:41.148Z,16.15
2023-05-25T03:13:48.316Z,16.11
2023-05-25T03:14:57.131Z,16.09
2023-05-25T03:16:10.941Z,16.08
2023-05-25T03:17:13.415Z,16.07
2023-05-25T03:18:16.277Z,16.06
2023-05-25T03:19:20.574Z,16.09
2023-05-25T03:20:24.794Z,16.06
2023-05-25T03:21:28.890Z,16.07
2023-05-25T03:22:31.312Z,16.08
2023-05-25T03:23:34.637Z,16.08
2023-05-25T03:24:41.873Z,16.08
2023-05-25T03:25:46.120Z,16.06
2023-05-25T03:26:50.466Z,16.05
2023-05-25T03:27:54.623Z,16.05
2023-05-25T03:28:57.246Z,16.01
2023-05-25T03:30:00.516Z,15.97
2023-05-25T03:31:02.971Z,15.96
2023-05-25T03:32:07.136Z,15.94
2023-05-25T03:33:09.651Z,15.90
2023-05-25T03:34:13.652Z,15.90
2023-05-25T03:35:16.172Z,15.89
2023-05-25T03:36:19.567Z,15.89
2023-05-25T03:37:22.650Z,15.88
2023-05-25T03:38:26.026Z,15.87
2023-05-25T03:39:28.501Z,15.86
2023-05-25T03:40:31.901Z,15.86
2023-05-25T03:41:34.331Z,15.85
2023-05-25T03:42:39.066Z,15.85
2023-05-25T03:43:42.097Z,15.85
2023-05-25T03:44:45.495Z,15.86
2023-05-25T03:45:47.972Z,15.87
2023-05-25T03:46:51.289Z,15.87
2023-05-25T03:47:54.084Z,15.86
2023-05-25T03:48:57.405Z,15.89
2023-05-25T03:49:59.778Z,15.90
2023-05-25T03:51:03.046Z,15.92
2023-05-25T03:52:06.383Z,15.92
2023-05-25T03:53:10.147Z,15.93
2023-05-25T03:54:12.591Z,15.94
2023-05-25T03:55:16.182Z,15.97
2023-05-25T03:56:18.549Z,15.97
2023-05-25T03:57:21.932Z,15.98
2023-05-25T03:58:26.098Z,15.99
2023-05-25T03:59:29.445Z,15.98
2023-05-25T04:00:32.119Z,16.00
2023-05-25T04:01:39.400Z,16.00
2023-05-25T04:02:42.153Z,16.00
2023-05-25T04:03:45.842Z,16.04
2023-05-25T04:04:51.978Z,16.06
2023-05-25T04:05:55.467Z,16.09
2023-05-25T04:06:58.160Z,16.11
2023-05-25T04:08:02.287Z,16.14
2023-05-25T04:09:05.008Z,16.17
2023-05-25T04:10:09.237Z,16.22
2023-05-25T04:11:11.970Z,16.27
2023-05-25T04:12:15.720Z,16.29
2023-05-25T04:13:18.386Z,16.34
2023-05-25T04:14:23.003Z,16.37
2023-05-25T04:15:25.332Z,16.41
2023-05-25T04:16:28.834Z,16.43
2023-05-25T04:17:31.341Z,16.47
2023-05-25T04:18:34.797Z,16.49
2023-05-25T04:19:37.143Z,16.50
2023-05-25T04:20:40.603Z,16.55
2023-05-25T04:21:43.393Z,16.57
2023-05-25T04:22:46.648Z,16.61
2023-05-25T04:23:48.956Z,16.63
2023-05-25T04:24:52.224Z,16.66
2023-05-25T04:25:54.682Z,16.71
2023-05-25T04:26:58.371Z,16.75
2023-05-25T04:28:01.668Z,16.81
2023-05-25T04:29:05.211Z,16.83
2023-05-25T04:30:11.190Z,16.88
2023-05-25T04:31:14.516Z,16.92
2023-05-25T04:32:18.804Z,16.96
2023-05-25T04:33:22.215Z,17.00
2023-05-25T04:34:24.990Z,17.02
2023-05-25T04:35:28.457Z,17.03
2023-05-25T04:36:32.753Z,17.04
2023-05-25T04:37:37.140Z,17.08
2023-05-25T04:38:39.447Z,17.12
2023-05-25T04:39:43.071Z,17.14
2023-05-25T04:40:47.568Z,17.18
2023-05-25T04:41:53.020Z,17.21
2023-05-25T04:42:57.048Z,17.27
2023-05-25T04:45:09.589Z,17.38
2023-05-25T04:46:13.905Z,17.43
2023-05-25T04:47:17.666Z,17.48
2023-05-25T04:48:21.552Z,17.54
2023-05-25T04:49:25.056Z,17.61
2023-05-25T04:50:28.158Z,17.68
2023-05-25T04:51:32.444Z,17.73
2023-05-25T04:52:34.851Z,17.78
2023-05-25T04:53:38.105Z,17.82
2023-05-25T04:54:42.242Z,17.87
2023-05-25T04:55:45.857Z,17.90
2023-05-25T04:56:48.831Z,17.97
2023-05-25T04:57:53.266Z,18.01
2023-05-25T04:58:55.715Z,18.07
2023-05-25T04:59:59.766Z,18.13
2023-05-25T05:01:03.458Z,18.19
2023-05-25T05:02:08.611Z,18.28
2023-05-25T05:03:11.922Z,18.35
2023-05-25T05:04:16.492Z,18.44
2023-05-25T05:05:19.956Z,18.57
2023-05-25T05:06:22.998Z,18.68
2023-05-25T05:07:26.723Z,18.82
2023-05-25T05:08:29.151Z,18.95
2023-05-25T05:09:32.430Z,19.11
2023-05-25T05:10:34.820Z,19.31
2023-05-25T05:11:38.345Z,19.51
2023-05-25T05:12:40.760Z,19.76
2023-05-25T05:13:44.169Z,20.08
2023-05-25T05:14:47.651Z,20.45
2023-05-25T05:15:50.939Z,20.83
2023-05-25T05:16:53.758Z,21.25
2023-05-25T05:17:58.436Z,21.66
2023-05-25T05:19:01.716Z,22.10
2023-05-25T05:20:08.897Z,22.54
2023-05-25T05:21:11.576Z,22.94
2023-05-25T05:22:16.155Z,23.33
2023-05-25T05:23:18.536Z,23.71
2023-05-25T05:24:22.508Z,24.07
2023-05-25T05:25:25.092Z,24.44
2023-05-25T05:26:28.833Z,24.78
2023-05-25T05:27:31.596Z,25.14
2023-05-25T05:28:36.544Z,25.43
2023-05-25T05:29:38.892Z,25.72
2023-05-25T05:30:42.217Z,26.00
2023-05-25T05:31:44.763Z,26.26
2023-05-25T05:32:48.199Z,26.50
2023-05-25T05:33:51.973Z,26.74
2023-05-25T05:34:55.471Z,26.95
2023-05-25T05:35:59.184Z,27.15
2023-05-25T05:37:01.491Z,27.32
2023-05-25T05:38:05.068Z,27.52
2023-05-25T05:39:07.643Z,27.71
2023-05-25T05:40:13.119Z,27.87
2023-05-25T05:41:15.650Z,28.06
2023-05-25T05:42:19.381Z,28.21
2023-05-25T05:43:22.044Z,28.39
2023-05-25T05:44:28.722Z,28.55
2023-05-25T05:45:31.750Z,28.73
2023-05-25T05:46:35.249Z,28.87
2023-05-25T05:47:42.198Z,29.04
2023-05-25T05:48:47.364Z,29.18
2023-05-25T05:49:51.133Z,29.34
2023-05-25T05:50:54.708Z,29.50
2023-05-25T05:51:57.356Z,29.64
2023-05-25T05:53:00.716Z,29.80
2023-05-25T05:54:03.277Z,29.95
2023-05-25T05:55:07.826Z,30.12
2023-05-25T05:56:18.135Z,30.30
2023-05-25T05:57:22.388Z,30.48
2023-05-25T05:58:27.269Z,30.67
2023-05-25T05:59:30.682Z,30.83
2023-05-25T06:00:33.170Z,30.99
2023-05-25T06:01:36.742Z,31.15
2023-05-25T06:02:41.473Z,31.34
2023-05-25T06:03:46.214Z,31.48
2023-05-25T06:04:48.604Z,31.63
2023-05-25T06:05:53.303Z,31.77
2023-05-25T06:06:55.788Z,31.90
2023-05-25T06:07:59.107Z,32.00
2023-05-25T06:09:03.687Z,32.10
2023-05-25T06:10:07.817Z,32.24
2023-05-25T06:11:10.165Z,32.37
2023-05-25T06:12:13.427Z,32.53
2023-05-25T06:13:16.908Z,32.68
2023-05-25T06:14:19.245Z,32.83
2023-05-25T06:15:22.543Z,32.97
2023-05-25T06:16:25.193Z,33.12
2023-05-25T06:17:29.668Z,33.27
2023-05-25T06:18:32.121Z,33.37
2023-05-25T06:19:36.450Z,33.41
2023-05-25T06:20:40.002Z,33.40
2023-05-25T06:21:44.904Z,33.43
2023-05-25T06:22:48.672Z,33.52
2023-05-25T06:23:51.405Z,33.62
2023-05-25T06:24:55.202Z,33.73
2023-05-25T06:25:57.622Z,33.80
2023-05-25T06:27:03.383Z,33.91
2023-05-25T06:28:05.837Z,34.05
2023-05-25T06:29:09.193Z,34.17
2023-05-25T06:30:12.677Z,34.33
2023-05-25T06:31:16.378Z,34.48
2023-05-25T06:32:18.838Z,34.67
2023-05-25T06:33:22.342Z,34.86
2023-05-25T06:34:25.567Z,35.03
2023-05-25T06:35:29.462Z,35.20
2023-05-25T06:36:32.736Z,35.34
2023-05-25T06:37:38.194Z,35.51
2023-05-25T06:38:40.739Z,35.68
2023-05-25T06:39:44.456Z,35.81
2023-05-25T06:40:47.001Z,35.89
2023-05-25T06:41:51.110Z,35.96
2023-05-25T06:42:53.783Z,36.04
2023-05-25T06:43:57.452Z,36.14
2023-05-25T06:44:59.997Z,36.22
2023-05-25T06:46:03.299Z,36.30
2023-05-25T06:47:06.657Z,36.39
2023-05-25T06:48:10.061Z,36.49
2023-05-25T06:49:12.525Z,36.64
2023-05-25T06:50:16.881Z,36.80
2023-05-25T06:51:19.487Z,36.93
2023-05-25T06:52:22.939Z,37.06
2023-05-25T06:53:27.650Z,37.19
2023-05-25T06:54:31.057Z,37.29
2023-05-25T06:55:33.806Z,37.40
2023-05-25T06:56:37.128Z,37.52
2023-05-25T06:57:39.524Z,37.63
2023-05-25T06:58:43.020Z,37.73
2023-05-25T06:59:45.713Z,37.85
2023-05-25T07:00:49.325Z,37.95
2023-05-25T07:01:51.854Z,38.07
2023-05-25T07:02:55.468Z,38.16
2023-05-25T07:03:58.746Z,38.28
2023-05-25T07:05:02.774Z,38.36
2023-05-25T07:06:07.258Z,38.43
2023-05-25T07:07:12.674Z,38.52
2023-05-25T07:08:15.454Z,38.60
2023-05-25T07:09:20.238Z,38.71
2023-05-25T07:10:24.248Z,38.82
2023-05-25T07:11:26.768Z,38.92
2023-05-25T07:12:30.092Z,39.03
2023-05-25T07:13:32.607Z,39.15
2023-05-25T07:14:36.107Z,39.26
2023-05-25T07:15:39.841Z,39.39
2023-05-25T07:16:42.650Z,39.51
2023-05-25T07:17:47.419Z,39.62
2023-05-25T07:18:50.863Z,39.73
2023-05-25T07:19:53.266Z,39.84
2023-05-25T07:20:56.704Z,39.93
2023-05-25T07:22:00.035Z,40.00
2023-05-25T07:23:02.407Z,40.04
2023-05-25T07:24:06.930Z,40.06
2023-05-25T07:25:11.150Z,40.12
2023-05-25T07:26:15.718Z,40.19
2023-05-25T07:27:19.741Z,40.26
2023-05-25T07:28:22.080Z,40.39
2023-05-25T07:29:25.514Z,40.47
2023-05-25T07:30:28.172Z,40.55
2023-05-25T07:31:32.086Z,40.62
2023-05-25T07:32:35.889Z,40.65
2023-05-25T07:33:38.551Z,40.70
2023-05-25T07:34:42.648Z,40.76
2023-05-25T07:35:45.162Z,40.84
2023-05-25T07:36:49.092Z,40.93
2023-05-25T07:37:58.361Z,41.01
2023-05-25T07:39:01.592Z,41.14
2023-05-25T07:40:06.204Z,41.25
2023-05-25T07:41:13.441Z,41.35
2023-05-25T07:42:21.201Z,41.40
2023-05-25T07:43:24.921Z,41.40
2023-05-25T07:44:29.265Z,41.38
2023-05-25T07:45:31.741Z,41.40
2023-05-25T07:46:35.115Z,41.44
2023-05-25T07:47:38.216Z,41.49
2023-05-25T07:48:41.687Z,41.50
2023-05-25T07:49:44.093Z,41.57
2023-05-25T07:50:47.544Z,41.67
2023-05-25T07:51:50.862Z,41.77
2023-05-25T07:52:53.940Z,41.84
2023-05-25T07:53:58.495Z,41.94
2023-05-25T07:55:01.009Z,42.05
2023-05-25T07:56:05.103Z,42.11
2023-05-25T07:57:08.956Z,42.17
2023-05-25T07:58:12.333Z,42.24
2023-05-25T07:59:14.749Z,42.35
2023-05-25T08:00:18.827Z,42.44
2023-05-25T08:01:26.915Z,42.53
2023-05-25T08:02:31.351Z,42.61
2023-05-25T08:03:48.345Z,42.68
2023-05-25T08:04:52.736Z,42.80
2023-05-25T08:05:56.027Z,42.90
2023-05-25T08:06:58.454Z,42.96
2023-05-25T08:08:01.791Z,42.97
2023-05-25T08:09:04.961Z,43.03
2023-05-25T08:10:09.894Z,43.11
2023-05-25T08:11:12.873Z,43.19
2023-05-25T08:13:22.845Z,43.29
2023-05-25T08:14:26.562Z,43.36
2023-05-25T08:15:28.940Z,43.43
2023-05-25T08:16:33.991Z,43.46
2023-05-25T08:17:36.714Z,43.54
2023-05-25T08:18:41.360Z,43.60
2023-05-25T08:19:43.734Z,43.65
2023-05-25T08:20:47.298Z,43.72
2023-05-25T08:21:49.667Z,43.80
2023-05-25T08:22:54.556Z,43.90
2023-05-25T08:23:57.549Z,44.01
2023-05-25T08:25:05.286Z,44.06
2023-05-25T08:26:26.052Z,44.11
2023-05-25T08:27:35.495Z,44.12
2023-05-25T08:28:39.634Z,44.19
2023-05-25T08:29:42.080Z,44.27
2023-05-25T08:30:47.272Z,44.27
2023-05-25T08:31:50.762Z,44.32
2023-05-25T08:32:53.225Z,44.38
2023-05-25T08:33:56.988Z,44.43
2023-05-25T08:35:01.725Z,44.47
2023-05-25T08:36:05.564Z,44.54
2023-05-25T08:37:09.077Z,44.56
2023-05-25T08:38:11.677Z,44.63
2023-05-25T08:39:16.158Z,44.66
2023-05-25T08:40:23.681Z,44.58
2023-05-25T08:41:27.075Z,44.53
2023-05-25T08:42:29.900Z,44.49
2023-05-25T08:43:35.816Z,44.48
2023-05-25T08:44:40.877Z,44.53
2023-05-25T08:45:47.069Z,44.62
2023-05-25T08:46:51.050Z,44.69
2023-05-25T08:47:59.256Z,44.70
2023-05-25T08:49:06.723Z,44.62
2023-05-25T08:50:11.537Z,44.56
2023-05-25T08:51:17.908Z,44.55
2023-05-25T08:52:23.880Z,44.56
2023-05-25T08:53:28.159Z,44.56
2023-05-25T08:54:39.134Z,44.60
2023-05-25T08:55:44.568Z,44.67
2023-05-25T08:56:51.888Z,44.73
2023-05-25T08:57:59.355Z,44.79
2023-05-25T08:59:10.187Z,44.84
2023-05-25T09:00:16.405Z,44.88
2023-05-25T09:01:24.704Z,44.90
2023-05-25T09:02:34.473Z,44.88
2023-05-25T09:03:41.623Z,44.88
2023-05-25T09:04:47.439Z,44.86
2023-05-25T09:05:52.070Z,44.83
2023-05-25T09:07:08.843Z,44.77
2023-05-25T09:08:14.992Z,44.73
2023-05-25T09:09:18.839Z,44.72
2023-05-25T09:10:23.042Z,44.75
2023-05-25T09:11:38.616Z,44.74
2023-05-25T09:12:45.069Z,44.69
2023-05-25T09:13:48.149Z,44.66
2023-05-25T09:14:54.722Z,44.62
2023-05-25T09:15:57.690Z,44.58
2023-05-25T09:17:02.153Z,44.50
2023-05-25T09:18:05.623Z,44.40
2023-05-25T09:19:09.030Z,44.25
2023-05-25T09:20:14.196Z,44.08
2023-05-25T09:21:16.697Z,43.88
2023-05-25T09:22:20.143Z,43.68
2023-05-25T09:23:22.981Z,43.39
2023-05-25T09:24:26.425Z,43.10
2023-05-25T09:25:31.960Z,42.87
2023-05-25T09:26:35.295Z,42.67
2023-05-25T09:27:39.263Z,42.50
2023-05-25T09:28:47.068Z,42.35
2023-05-25T09:29:52.471Z,42.17
2023-05-25T09:30:56.009Z,41.98
2023-05-25T09:31:58.466Z,41.81
2023-05-25T09:33:12.003Z,41.54
2023-05-25T09:34:15.103Z,41.34
2023-05-25T09:35:18.551Z,41.13
2023-05-25T09:36:23.452Z,40.88
2023-05-25T09:37:27.472Z,40.60
2023-05-25T09:38:31.444Z,40.33
2023-05-25T09:39:35.068Z,40.14
2023-05-25T09:40:39.504Z,39.89
2023-05-25T09:41:42.261Z,39.73
2023-05-25T09:42:46.141Z,39.56
2023-05-25T09:45:00.989Z,39.24
2023-05-25T09:46:03.365Z,39.09
2023-05-25T09:47:07.729Z,38.89
2023-05-25T09:48:11.617Z,38.60
2023-05-25T09:49:15.396Z,38.35
2023-05-25T09:50:18.055Z,38.09
2023-05-25T09:51:22.544Z,37.74
2023-05-25T09:52:26.155Z,37.42
2023-05-25T09:53:28.523Z,37.08
2023-05-25T09:54:32.061Z,36.83
2023-05-25T09:55:51.648Z,36.67
2023-05-25T09:56:57.009Z,36.34
2023-05-25T09:58:00.674Z,36.15
2023-05-25T09:59:03.680Z,35.91
2023-05-25T10:00:11.340Z,35.67
2023-05-25T10:01:25.538Z,35.44
2023-05-25T10:02:31.880Z,35.25
2023-05-25T10:03:34.753Z,35.01
2023-05-25T10:04:39.796Z,34.84
2023-05-25T10:05:44.573Z,34.63
2023-05-25T10:06:50.631Z,34.36
2023-05-25T10:07:58.654Z,34.12
2023-05-25T10:09:02.043Z,33.88
2023-05-25T10:10:09.587Z,33.65
2023-05-25T10:11:16.673Z,33.37
2023-05-25T10:12:20.899Z,33.14
2023-05-25T10:13:27.577Z,32.92
2023-05-25T10:14:33.427Z,32.70
2023-05-25T10:15:41.036Z,32.53
2023-05-25T10:16:47.444Z,32.37
2023-05-25T10:17:56.015Z,32.26
2023-05-25T10:19:04.418Z,32.18
2023-05-25T10:20:10.074Z,32.08
2023-05-25T10:21:13.942Z,31.99
2023-05-25T10:22:22.066Z,31.89
2023-05-25T10:23:28.918Z,31.76
2023-05-25T10:24:35.516Z,31.69
2023-05-25T10:25:42.051Z,31.62
2023-05-25T10:26:49.870Z,31.52
2023-05-25T10:28:00.362Z,31.46
2023-05-25T10:29:05.870Z,31.41
2023-05-25T10:30:11.197Z,31.37
2023-05-25T10:31:17.729Z,31.35
2023-05-25T10:32:20.563Z,31.37
2023-05-25T10:33:24.904Z,31.34
2023-05-25T10:34:28.325Z,31.28
2023-05-25T10:35:35.558Z,31.24
2023-05-25T10:36:43.011Z,31.21
2023-05-25T10:37:47.244Z,31.20
2023-05-25T10:38:52.421Z,31.16
2023-05-25T10:39:58.185Z,31.14
2023-05-25T10:41:03.460Z,31.08
2023-05-25T10:42:06.998Z,31.06
2023-05-25T10:43:10.501Z,31.07
2023-05-25T10:44:13.597Z,31.09
2023-05-25T10:45:18.014Z,31.12
2023-05-25T10:46:22.816Z,31.17
2023-05-25T10:47:30.882Z,31.24
2023-05-25T10:48:37.593Z,31.31
2023-05-25T10:49:54.609Z,31.37
2023-05-25T10:50:58.291Z,31.46
2023-05-25T10:52:02.463Z,31.56
2023-05-25T10:53:08.492Z,31.66
2023-05-25T10:54:15.064Z,31.71
2023-05-25T10:55:18.500Z,31.75
2023-05-25T10:56:21.306Z,31.75
2023-05-25T10:57:25.546Z,31.70
2023-05-25T10:58:30.310Z,31.63
2023-05-25T10:59:32.586Z,31.51
2023-05-25T11:00:36.121Z,31.38
2023-05-25T11:01:52.839Z,31.22
2023-05-25T11:02:56.514Z,31.10
2023-05-25T11:04:17.364Z,30.90
2023-05-25T11:05:34.451Z,30.73
2023-05-25T11:07:08.542Z,30.40
2023-05-25T11:08:12.754Z,30.07
2023-05-25T11:09:25.600Z,29.90
2023-05-25T11:10:52.985Z,29.67
2023-05-25T11:12:03.859Z,29.25
2023-05-25T11:13:24.103Z,28.74
2023-05-25T11:14:30.768Z,28.20
2023-05-25T11:15:33.217Z,27.82
2023-05-25T11:16:37.904Z,27.49
2023-05-25T11:17:58.268Z,27.22
2023-05-25T11:19:01.574Z,26.97
2023-05-25T11:20:06.349Z,26.79
2023-05-25T11:21:14.540Z,26.56
2023-05-25T11:22:20.764Z,26.37
2023-05-25T11:23:24.351Z,26.24
2023-05-25T11:24:27.745Z,26.15
2023-05-25T11:25:38.449Z,26.17
2023-05-25T11:26:55.969Z,26.20
2023-05-25T11:28:04.891Z,26.18
2023-05-25T11:29:14.338Z,26.14
2023-05-25T11:30:18.732Z,26.12
2023-05-25T11:31:24.597Z,26.14
2023-05-25T11:32:29.335Z,26.04
2023-05-25T11:33:34.299Z,26.00
2023-05-25T11:34:37.846Z,25.99
2023-05-25T11:35:41.691Z,25.87
2023-05-25T11:36:45.092Z,25.78
2023-05-25T11:37:51.336Z,25.73
2023-05-25T11:39:04.965Z,25.72
2023-05-25T11:40:15.395Z,25.60
2023-05-25T11:41:18.623Z,25.51
2023-05-25T11:42:22.960Z,25.45
2023-05-25T11:43:27.539Z,25.42
2023-05-25T11:44:34.008Z,25.42
2023-05-25T11:45:39.359Z,25.35
2023-05-25T11:46:44.112Z,25.29
2023-05-25T11:47:47.628Z,25.31
2023-05-25T11:48:54.114Z,25.32
2023-05-25T11:49:57.827Z,25.29
2023-05-25T11:51:06.391Z,25.24
2023-05-25T11:52:10.327Z,25.20
2023-05-25T11:53:12.884Z,25.22
2023-05-25T11:54:23.789Z,25.27
2023-05-25T11:55:27.597Z,25.35
2023-05-25T11:56:35.674Z,25.49
2023-05-25T11:57:40.419Z,25.56
2023-05-25T11:58:44.646Z,25.70
2023-05-25T11:59:52.628Z,25.80
2023-05-25T12:00:55.220Z,25.91
2023-05-25T12:02:00.704Z,26.04
2023-05-25T12:03:05.828Z,26.15
2023-05-25T12:04:12.021Z,26.27
2023-05-25T12:05:15.579Z,26.38
2023-05-25T12:06:26.425Z,26.57
2023-05-25T12:07:31.370Z,26.65
2023-05-25T12:08:33.889Z,26.76
2023-05-25T12:09:37.988Z,26.88
2023-05-25T12:10:52.050Z,26.97
2023-05-25T12:11:54.810Z,27.07
2023-05-25T12:12:58.584Z,27.17
2023-05-25T12:14:04.102Z,27.27
2023-05-25T12:15:09.579Z,27.39
2023-05-25T12:16:13.158Z,27.48
2023-05-25T12:17:17.658Z,27.58
2023-05-25T12:18:23.384Z,27.65
2023-05-25T12:19:28.389Z,27.66
2023-05-25T12:20:32.632Z,27.70
2023-05-25T12:21:37.362Z,27.71
2023-05-25T12:22:43.343Z,27.73
2023-05-25T12:23:47.019Z,27.74
2023-05-25T12:24:50.908Z,27.75
2023-05-25T12:26:08.220Z,27.74
2023-05-25T12:27:19.239Z,27.70
2023-05-25T12:28:21.628Z,27.64
2023-05-25T12:29:26.139Z,27.56
2023-05-25T12:30:28.946Z,27.52
2023-05-25T12:31:34.703Z,27.45
2023-05-25T12:32:56.132Z,27.36
2023-05-25T12:34:06.569Z,27.31
2023-05-25T12:35:11.815Z,27.28
2023-05-25T12:36:14.326Z,27.24
2023-05-25T12:37:21.393Z,27.17
2023-05-25T12:38:23.855Z,27.12
2023-05-25T12:39:38.892Z,27.06
2023-05-25T12:40:42.024Z,27.01
2023-05-25T12:41:52.448Z,26.96
2023-05-25T12:42:57.581Z,26.90
2023-05-25T12:44:01.196Z,26.87
2023-05-25T12:45:04.969Z,26.82
2023-05-25T12:46:07.967Z,26.76
2023-05-25T12:47:12.962Z,26.72
2023-05-25T12:48:16.484Z,26.64
2023-05-25T12:49:29.882Z,26.56
2023-05-25T12:50:34.747Z,26.45
2023-05-25T12:51:40.827Z,26.33
2023-05-25T12:52:46.589Z,26.27
2023-05-25T12:53:50.991Z,26.18
2023-05-25T12:54:54.362Z,26.09
2023-05-25T12:56:04.368Z,25.98
2023-05-25T12:57:08.041Z,25.94
2023-05-25T12:58:27.626Z,25.81
2023-05-25T12:59:30.842Z,25.73
2023-05-25T13:00:35.590Z,25.67
2023-05-25T13:01:38.125Z,25.59
2023-05-25T13:02:44.127Z,25.50
2023-05-25T13:03:46.945Z,25.24
2023-05-25T13:04:51.294Z,24.89
2023-05-25T13:06:01.413Z,24.57
2023-05-25T13:07:05.158Z,24.30
2023-05-25T13:08:08.693Z,24.19
2023-05-25T13:09:11.533Z,24.14
2023-05-25T13:10:16.028Z,24.20
2023-05-25T13:11:19.386Z,24.26
2023-05-25T13:12:22.666Z,24.24
2023-05-25T13:13:25.170Z,24.22
2023-05-25T13:14:30.076Z,24.18
2023-05-25T13:15:33.546Z,24.13
2023-05-25T13:16:36.129Z,24.11
2023-05-25T13:17:39.974Z,24.06
2023-05-25T13:18:42.386Z,23.94
2023-05-25T13:19:45.951Z,23.81
2023-05-25T13:20:51.787Z,23.61
2023-05-25T13:21:58.368Z,23.44
2023-05-25T13:23:03.191Z,23.29
2023-05-25T13:24:06.316Z,23.15
2023-05-25T13:25:10.598Z,23.05
2023-05-25T13:26:13.940Z,22.98
2023-05-25T13:27:17.470Z,22.94
2023-05-25T13:28:19.897Z,22.86
2023-05-25T13:29:23.996Z,22.87
2023-05-25T13:30:26.706Z,22.81
2023-05-25T13:31:30.219Z,22.80
2023-05-25T13:32:32.707Z,22.77
2023-05-25T13:33:36.178Z,22.75
2023-05-25T13:34:39.565Z,22.74
2023-05-25T13:35:46.451Z,22.74
2023-05-25T13:36:49.904Z,22.72
2023-05-25T13:37:53.620Z,22.74
2023-05-25T13:38:59.224Z,22.76
2023-05-25T13:40:03.480Z,22.81
2023-05-25T13:41:05.914Z,22.89
2023-05-25T13:42:09.446Z,22.96
2023-05-25T13:43:11.876Z,23.03
2023-05-25T13:44:17.447Z,23.14
2023-05-25T13:45:20.680Z,23.23
2023-05-25T13:46:34.325Z,23.32
2023-05-25T13:47:38.908Z,23.44
2023-05-25T13:48:48.442Z,23.56
2023-05-25T13:49:52.075Z,23.68
2023-05-25T13:50:54.476Z,23.80
2023-05-25T13:51:57.866Z,23.93
2023-05-25T13:53:01.601Z,24.05
2023-05-25T13:54:05.556Z,24.13
2023-05-25T13:55:08.941Z,24.22
2023-05-25T13:56:12.395Z,24.30
2023-05-25T13:57:14.948Z,24.37
2023-05-25T13:58:18.475Z,24.45
2023-05-25T13:59:22.195Z,24.52
2023-05-25T14:00:24.730Z,24.59